Terminal Aerodrome Forecast
Issued by NWS New Orleans/Baton Rouge, LA

Home | Current Version | Previous Version | Text Only | Print | Product List | Glossary On
Versions: 1 2 3 4 5 6 7 8 9 10 11 12 13 14 15 16 17
257
FTUS44 KLIX 232212 AAB
TAFBTR
TAF AMD
KBTR 232212Z 2322/2418 33012KT P6SM BKN030
     FM240200 33005KT P6SM SCT150
     FM241700 31009KT P6SM SKC=

USA.gov is the U.S. government's official web portal to all federal, state and local government web resources and services.